sensor_id;sensor_type;location;lat;lon;timestamp;P1;durP1;ratioP1;P2;durP2;ratioP2
789;SDS011;378;48.844;9.156;2023-03-31T00:01:14;3.88;;;1.48;;
789;SDS011;378;48.844;9.156;2023-03-31T00:03:40;6.70;;;1.58;;
789;SDS011;378;48.844;9.156;2023-03-31T00:06:08;9.45;;;1.73;;
789;SDS011;378;48.844;9.156;2023-03-31T00:08:42;7.25;;;1.77;;
789;SDS011;378;48.844;9.156;2023-03-31T00:11:09;4.30;;;1.30;;
789;SDS011;378;48.844;9.156;2023-03-31T00:13:36;6.65;;;1.58;;
789;SDS011;378;48.844;9.156;2023-03-31T00:16:06;10.18;;;1.40;;
789;SDS011;378;48.844;9.156;2023-03-31T00:18:34;4.70;;;1.58;;
789;SDS011;378;48.844;9.156;2023-03-31T00:21:05;8.18;;;1.88;;
789;SDS011;378;48.844;9.156;2023-03-31T00:23:33;6.40;;;1.65;;
789;SDS011;378;48.844;9.156;2023-03-31T00:26:00;7.88;;;1.55;;
789;SDS011;378;48.844;9.156;2023-03-31T00:28:27;8.18;;;1.60;;
789;SDS011;378;48.844;9.156;2023-03-31T00:30:58;5.60;;;1.50;;
789;SDS011;378;48.844;9.156;2023-03-31T00:33:27;7.80;;;1.50;;
789;SDS011;378;48.844;9.156;2023-03-31T00:35:54;6.28;;;1.40;;
789;SDS011;378;48.844;9.156;2023-03-31T00:38:25;11.68;;;1.70;;
789;SDS011;378;48.844;9.156;2023-03-31T00:40:53;8.38;;;1.70;;
789;SDS011;378;48.844;9.156;2023-03-31T00:43:23;2.78;;;1.45;;
789;SDS011;378;48.844;9.156;2023-03-31T00:45:54;10.77;;;1.55;;
789;SDS011;378;48.844;9.156;2023-03-31T00:48:25;6.50;;;1.70;;
789;SDS011;378;48.844;9.156;2023-03-31T00:50:55;5.32;;;1.58;;
789;SDS011;378;48.844;9.156;2023-03-31T00:53:25;10.25;;;1.55;;
789;SDS011;378;48.844;9.156;2023-03-31T00:55:57;6.13;;;1.60;;
789;SDS011;378;48.844;9.156;2023-03-31T00:58:27;8.23;;;1.67;;
789;SDS011;378;48.844;9.156;2023-03-31T01:00:57;5.07;;;1.52;;
789;SDS011;378;48.844;9.156;2023-03-31T01:03:29;9.30;;;1.63;;
789;SDS011;378;48.844;9.156;2023-03-31T01:05:58;7.72;;;1.52;;
789;SDS011;378;48.844;9.156;2023-03-31T01:08:31;9.43;;;1.52;;
789;SDS011;378;48.844;9.156;2023-03-31T01:11:01;5.28;;;1.45;;
789;SDS011;378;48.844;9.156;2023-03-31T01:13:30;5.28;;;1.60;;
789;SDS011;378;48.844;9.156;2023-03-31T01:15:57;9.38;;;1.50;;
789;SDS011;378;48.844;9.156;2023-03-31T01:18:24;5.45;;;1.20;;
789;SDS011;378;48.844;9.156;2023-03-31T01:21:03;8.70;;;1.60;;
789;SDS011;378;48.844;9.156;2023-03-31T01:23:58;6.25;;;1.83;;
789;SDS011;378;48.844;9.156;2023-03-31T01:26:49;8.07;;;1.90;;
789;SDS011;378;48.844;9.156;2023-03-31T01:29:32;5.88;;;1.60;;
789;SDS011;378;48.844;9.156;2023-03-31T01:41:32;9.65;;;2.13;;
789;SDS011;378;48.844;9.156;2023-03-31T01:44:08;6.75;;;1.80;;
789;SDS011;378;48.844;9.156;2023-03-31T01:46:44;7.63;;;1.95;;
789;SDS011;378;48.844;9.156;2023-03-31T01:49:18;9.05;;;1.63;;
789;SDS011;378;48.844;9.156;2023-03-31T01:51:50;7.13;;;1.65;;
789;SDS011;378;48.844;9.156;2023-03-31T01:54:24;6.85;;;1.50;;
789;SDS011;378;48.844;9.156;2023-03-31T01:57:05;9.70;;;1.98;;
789;SDS011;378;48.844;9.156;2023-03-31T01:59:39;3.60;;;1.27;;
789;SDS011;378;48.844;9.156;2023-03-31T02:02:10;5.20;;;1.23;;
789;SDS011;378;48.844;9.156;2023-03-31T02:04:42;9.40;;;1.40;;
789;SDS011;378;48.844;9.156;2023-03-31T02:07:14;6.05;;;1.10;;
789;SDS011;378;48.844;9.156;2023-03-31T02:09:47;4.70;;;1.27;;
789;SDS011;378;48.844;9.156;2023-03-31T02:12:20;6.95;;;1.30;;
789;SDS011;378;48.844;9.156;2023-03-31T02:14:51;5.63;;;1.30;;
789;SDS011;378;48.844;9.156;2023-03-31T02:17:20;4.15;;;0.98;;
789;SDS011;378;48.844;9.156;2023-03-31T02:19:54;4.35;;;1.20;;
789;SDS011;378;48.844;9.156;2023-03-31T02:22:24;5.07;;;1.35;;
789;SDS011;378;48.844;9.156;2023-03-31T02:24:54;5.72;;;1.17;;
789;SDS011;378;48.844;9.156;2023-03-31T02:27:24;5.40;;;1.42;;
789;SDS011;378;48.844;9.156;2023-03-31T02:29:53;7.47;;;1.33;;
789;SDS011;378;48.844;9.156;2023-03-31T02:32:21;7.88;;;1.73;;
789;SDS011;378;48.844;9.156;2023-03-31T02:34:55;6.35;;;1.50;;
789;SDS011;378;48.844;9.156;2023-03-31T02:37:22;5.38;;;1.60;;
789;SDS011;378;48.844;9.156;2023-03-31T02:39:49;7.38;;;1.58;;
789;SDS011;378;48.844;9.156;2023-03-31T02:42:18;5.95;;;1.50;;
789;SDS011;378;48.844;9.156;2023-03-31T02:44:47;11.88;;;1.67;;
789;SDS011;378;48.844;9.156;2023-03-31T02:47:15;6.22;;;1.33;;
789;SDS011;378;48.844;9.156;2023-03-31T02:49:45;5.20;;;1.55;;
789;SDS011;378;48.844;9.156;2023-03-31T02:55:15;6.72;;;1.23;;
789;SDS011;378;48.844;9.156;2023-03-31T02:57:57;8.60;;;1.67;;
789;SDS011;378;48.844;9.156;2023-03-31T03:00:41;6.25;;;1.42;;
789;SDS011;378;48.844;9.156;2023-03-31T03:03:19;5.18;;;1.63;;
789;SDS011;378;48.844;9.156;2023-03-31T03:06:01;7.30;;;1.60;;
789;SDS011;378;48.844;9.156;2023-03-31T03:08:40;4.22;;;1.58;;
789;SDS011;378;48.844;9.156;2023-03-31T03:11:20;8.82;;;1.67;;
789;SDS011;378;48.844;9.156;2023-03-31T03:13:53;7.93;;;1.90;;
789;SDS011;378;48.844;9.156;2023-03-31T03:16:27;9.45;;;1.70;;
789;SDS011;378;48.844;9.156;2023-03-31T03:19:00;7.38;;;2.20;;
789;SDS011;378;48.844;9.156;2023-03-31T03:21:28;6.78;;;1.70;;
789;SDS011;378;48.844;9.156;2023-03-31T03:23:56;6.45;;;1.80;;
789;SDS011;378;48.844;9.156;2023-03-31T03:26:23;5.70;;;1.75;;
789;SDS011;378;48.844;9.156;2023-03-31T03:28:52;5.47;;;1.80;;
789;SDS011;378;48.844;9.156;2023-03-31T03:31:20;9.48;;;1.92;;
789;SDS011;378;48.844;9.156;2023-03-31T03:33:49;8.18;;;1.75;;
789;SDS011;378;48.844;9.156;2023-03-31T03:36:16;11.27;;;2.00;;
789;SDS011;378;48.844;9.156;2023-03-31T03:38:44;3.72;;;1.80;;
789;SDS011;378;48.844;9.156;2023-03-31T03:41:10;6.38;;;2.28;;
789;SDS011;378;48.844;9.156;2023-03-31T03:43:37;8.63;;;2.50;;
789;SDS011;378;48.844;9.156;2023-03-31T03:46:04;7.70;;;2.10;;
789;SDS011;378;48.844;9.156;2023-03-31T03:48:31;6.75;;;2.00;;
789;SDS011;378;48.844;9.156;2023-03-31T03:50:59;13.50;;;2.35;;
789;SDS011;378;48.844;9.156;2023-03-31T03:53:27;10.20;;;2.05;;
789;SDS011;378;48.844;9.156;2023-03-31T03:55:54;5.15;;;2.00;;
789;SDS011;378;48.844;9.156;2023-03-31T03:58:23;8.57;;;2.00;;
789;SDS011;378;48.844;9.156;2023-03-31T04:00:50;6.60;;;2.10;;
789;SDS011;378;48.844;9.156;2023-03-31T04:03:17;8.25;;;2.25;;
789;SDS011;378;48.844;9.156;2023-03-31T04:05:43;9.50;;;2.15;;
789;SDS011;378;48.844;9.156;2023-03-31T04:08:15;8.15;;;2.35;;
789;SDS011;378;48.844;9.156;2023-03-31T04:10:42;6.88;;;2.50;;
789;SDS011;378;48.844;9.156;2023-03-31T04:13:10;10.60;;;2.53;;
789;SDS011;378;48.844;9.156;2023-03-31T04:15:37;9.60;;;2.60;;
789;SDS011;378;48.844;9.156;2023-03-31T04:18:04;9.45;;;2.10;;
789;SDS011;378;48.844;9.156;2023-03-31T04:20:31;12.38;;;2.53;;
789;SDS011;378;48.844;9.156;2023-03-31T04:22:58;6.80;;;2.40;;
789;SDS011;378;48.844;9.156;2023-03-31T04:25:28;9.25;;;2.30;;
789;SDS011;378;48.844;9.156;2023-03-31T04:27:54;8.15;;;2.00;;
789;SDS011;378;48.844;9.156;2023-03-31T04:30:21;5.38;;;2.20;;
789;SDS011;378;48.844;9.156;2023-03-31T04:32:55;7.80;;;2.60;;
789;SDS011;378;48.844;9.156;2023-03-31T04:35:24;6.95;;;1.92;;
789;SDS011;378;48.844;9.156;2023-03-31T04:38:02;8.23;;;2.75;;
789;SDS011;378;48.844;9.156;2023-03-31T04:40:30;9.38;;;2.72;;
789;SDS011;378;48.844;9.156;2023-03-31T04:42:59;6.35;;;2.28;;
789;SDS011;378;48.844;9.156;2023-03-31T04:45:26;9.50;;;2.80;;
789;SDS011;378;48.844;9.156;2023-03-31T04:47:53;7.80;;;2.38;;
789;SDS011;378;48.844;9.156;2023-03-31T04:50:20;8.63;;;2.78;;
789;SDS011;378;48.844;9.156;2023-03-31T04:52:47;9.35;;;2.55;;
789;SDS011;378;48.844;9.156;2023-03-31T04:55:13;9.20;;;2.78;;
789;SDS011;378;48.844;9.156;2023-03-31T04:57:42;11.25;;;3.03;;
789;SDS011;378;48.844;9.156;2023-03-31T05:00:09;9.13;;;2.83;;
789;SDS011;378;48.844;9.156;2023-03-31T05:02:36;5.55;;;2.65;;
789;SDS011;378;48.844;9.156;2023-03-31T05:05:04;13.70;;;3.00;;
789;SDS011;378;48.844;9.156;2023-03-31T05:07:31;8.13;;;3.30;;
789;SDS011;378;48.844;9.156;2023-03-31T05:09:58;5.82;;;2.63;;
789;SDS011;378;48.844;9.156;2023-03-31T05:12:24;6.88;;;2.58;;
789;SDS011;378;48.844;9.156;2023-03-31T05:14:53;16.08;;;2.78;;
789;SDS011;378;48.844;9.156;2023-03-31T05:17:19;8.38;;;3.15;;
789;SDS011;378;48.844;9.156;2023-03-31T05:19:46;7.97;;;2.63;;
789;SDS011;378;48.844;9.156;2023-03-31T05:22:14;9.07;;;2.85;;
789;SDS011;378;48.844;9.156;2023-03-31T05:24:44;7.25;;;2.83;;
789;SDS011;378;48.844;9.156;2023-03-31T05:27:11;11.57;;;3.38;;
789;SDS011;378;48.844;9.156;2023-03-31T05:29:38;11.13;;;3.20;;
789;SDS011;378;48.844;9.156;2023-03-31T05:32:06;11.23;;;3.75;;
789;SDS011;378;48.844;9.156;2023-03-31T05:34:33;14.80;;;3.50;;
789;SDS011;378;48.844;9.156;2023-03-31T05:37:01;12.57;;;3.67;;
789;SDS011;378;48.844;9.156;2023-03-31T05:39:28;18.30;;;4.30;;
789;SDS011;378;48.844;9.156;2023-03-31T05:41:57;13.35;;;4.40;;
789;SDS011;378;48.844;9.156;2023-03-31T05:44:24;15.10;;;4.70;;
789;SDS011;378;48.844;9.156;2023-03-31T05:46:51;15.50;;;4.40;;
789;SDS011;378;48.844;9.156;2023-03-31T05:49:19;24.13;;;5.07;;
789;SDS011;378;48.844;9.156;2023-03-31T05:51:46;16.27;;;5.15;;
789;SDS011;378;48.844;9.156;2023-03-31T05:54:13;21.73;;;5.53;;
789;SDS011;378;48.844;9.156;2023-03-31T05:56:40;17.35;;;4.70;;
789;SDS011;378;48.844;9.156;2023-03-31T05:59:07;19.80;;;4.70;;
789;SDS011;378;48.844;9.156;2023-03-31T06:01:33;15.35;;;4.93;;
789;SDS011;378;48.844;9.156;2023-03-31T06:04:00;16.27;;;4.32;;
789;SDS011;378;48.844;9.156;2023-03-31T06:06:29;21.63;;;5.30;;
789;SDS011;378;48.844;9.156;2023-03-31T06:08:57;17.45;;;5.05;;
789;SDS011;378;48.844;9.156;2023-03-31T06:11:24;17.70;;;5.85;;
789;SDS011;378;48.844;9.156;2023-03-31T06:13:50;29.70;;;5.65;;
789;SDS011;378;48.844;9.156;2023-03-31T06:16:18;22.70;;;6.35;;
789;SDS011;378;48.844;9.156;2023-03-31T06:18:45;24.15;;;6.60;;
789;SDS011;378;48.844;9.156;2023-03-31T06:21:13;24.05;;;6.78;;
789;SDS011;378;48.844;9.156;2023-03-31T06:23:45;18.55;;;6.22;;
789;SDS011;378;48.844;9.156;2023-03-31T06:26:12;22.52;;;6.30;;
789;SDS011;378;48.844;9.156;2023-03-31T06:28:41;20.35;;;5.72;;
789;SDS011;378;48.844;9.156;2023-03-31T06:31:08;19.98;;;5.55;;
789;SDS011;378;48.844;9.156;2023-03-31T06:33:37;21.58;;;5.80;;
789;SDS011;378;48.844;9.156;2023-03-31T06:36:05;19.85;;;5.32;;
789;SDS011;378;48.844;9.156;2023-03-31T06:38:32;20.25;;;5.50;;
789;SDS011;378;48.844;9.156;2023-03-31T06:41:02;13.88;;;5.38;;
789;SDS011;378;48.844;9.156;2023-03-31T06:43:28;15.52;;;5.65;;
789;SDS011;378;48.844;9.156;2023-03-31T06:45:55;18.33;;;5.90;;
789;SDS011;378;48.844;9.156;2023-03-31T06:48:22;12.45;;;5.88;;
789;SDS011;378;48.844;9.156;2023-03-31T06:50:50;16.95;;;5.60;;
789;SDS011;378;48.844;9.156;2023-03-31T06:53:20;20.40;;;6.00;;
789;SDS011;378;48.844;9.156;2023-03-31T06:55:48;19.50;;;6.40;;
789;SDS011;378;48.844;9.156;2023-03-31T06:58:16;19.00;;;5.80;;
789;SDS011;378;48.844;9.156;2023-03-31T07:00:44;25.10;;;7.22;;
789;SDS011;378;48.844;9.156;2023-03-31T07:03:11;20.77;;;6.45;;
789;SDS011;378;48.844;9.156;2023-03-31T07:05:40;20.42;;;6.38;;
789;SDS011;378;48.844;9.156;2023-03-31T07:08:07;17.50;;;5.93;;
789;SDS011;378;48.844;9.156;2023-03-31T07:10:37;26.10;;;6.68;;
789;SDS011;378;48.844;9.156;2023-03-31T07:13:07;15.43;;;6.15;;
789;SDS011;378;48.844;9.156;2023-03-31T07:15:35;19.15;;;5.60;;
789;SDS011;378;48.844;9.156;2023-03-31T07:18:02;14.52;;;4.05;;
789;SDS011;378;48.844;9.156;2023-03-31T07:20:29;10.60;;;4.40;;
789;SDS011;378;48.844;9.156;2023-03-31T07:22:56;13.20;;;4.82;;
789;SDS011;378;48.844;9.156;2023-03-31T07:25:23;14.85;;;4.70;;
789;SDS011;378;48.844;9.156;2023-03-31T07:27:50;12.95;;;4.80;;
789;SDS011;378;48.844;9.156;2023-03-31T07:30:18;11.90;;;4.05;;
789;SDS011;378;48.844;9.156;2023-03-31T07:32:48;10.02;;;3.13;;
789;SDS011;378;48.844;9.156;2023-03-31T07:35:16;7.72;;;2.72;;
789;SDS011;378;48.844;9.156;2023-03-31T07:37:44;12.63;;;3.15;;
789;SDS011;378;48.844;9.156;2023-03-31T07:40:13;7.60;;;2.65;;
789;SDS011;378;48.844;9.156;2023-03-31T07:42:42;4.25;;;2.28;;
789;SDS011;378;48.844;9.156;2023-03-31T07:45:11;4.03;;;1.98;;
789;SDS011;378;48.844;9.156;2023-03-31T07:47:38;4.03;;;1.63;;
789;SDS011;378;48.844;9.156;2023-03-31T07:50:07;3.45;;;1.50;;
789;SDS011;378;48.844;9.156;2023-03-31T07:52:35;4.05;;;1.50;;
789;SDS011;378;48.844;9.156;2023-03-31T07:55:02;4.55;;;1.33;;
789;SDS011;378;48.844;9.156;2023-03-31T07:57:29;3.03;;;1.00;;
789;SDS011;378;48.844;9.156;2023-03-31T07:59:56;2.47;;;1.13;;
789;SDS011;378;48.844;9.156;2023-03-31T08:02:23;2.28;;;0.90;;
789;SDS011;378;48.844;9.156;2023-03-31T08:04:50;3.22;;;1.00;;
789;SDS011;378;48.844;9.156;2023-03-31T08:07:18;3.03;;;1.00;;
789;SDS011;378;48.844;9.156;2023-03-31T08:09:45;1.55;;;0.98;;
789;SDS011;378;48.844;9.156;2023-03-31T08:12:13;2.03;;;0.95;;
789;SDS011;378;48.844;9.156;2023-03-31T08:14:40;4.03;;;1.08;;
789;SDS011;378;48.844;9.156;2023-03-31T08:17:07;3.45;;;0.90;;
789;SDS011;378;48.844;9.156;2023-03-31T08:19:34;2.25;;;0.90;;
789;SDS011;378;48.844;9.156;2023-03-31T08:22:01;6.05;;;0.95;;
789;SDS011;378;48.844;9.156;2023-03-31T08:24:29;4.18;;;0.80;;
789;SDS011;378;48.844;9.156;2023-03-31T08:26:56;3.65;;;0.85;;
789;SDS011;378;48.844;9.156;2023-03-31T08:29:23;2.28;;;0.85;;
789;SDS011;378;48.844;9.156;2023-03-31T08:31:50;3.85;;;0.93;;
789;SDS011;378;48.844;9.156;2023-03-31T08:34:16;2.17;;;0.70;;
789;SDS011;378;48.844;9.156;2023-03-31T08:36:43;2.33;;;0.90;;
789;SDS011;378;48.844;9.156;2023-03-31T08:39:11;6.03;;;1.17;;
789;SDS011;378;48.844;9.156;2023-03-31T08:41:43;1.85;;;0.80;;
789;SDS011;378;48.844;9.156;2023-03-31T08:44:20;6.35;;;1.30;;
789;SDS011;378;48.844;9.156;2023-03-31T08:46:51;3.03;;;0.80;;
789;SDS011;378;48.844;9.156;2023-03-31T08:49:22;2.88;;;0.80;;
789;SDS011;378;48.844;9.156;2023-03-31T08:51:52;2.42;;;0.85;;
789;SDS011;378;48.844;9.156;2023-03-31T08:54:27;2.50;;;1.02;;
789;SDS011;378;48.844;9.156;2023-03-31T08:56:59;2.92;;;1.08;;
789;SDS011;378;48.844;9.156;2023-03-31T08:59:29;2.90;;;0.90;;
789;SDS011;378;48.844;9.156;2023-03-31T09:02:03;2.83;;;0.90;;
789;SDS011;378;48.844;9.156;2023-03-31T09:04:45;3.60;;;1.15;;
789;SDS011;378;48.844;9.156;2023-03-31T09:07:27;6.15;;;1.20;;
789;SDS011;378;48.844;9.156;2023-03-31T09:10:02;4.28;;;0.85;;
789;SDS011;378;48.844;9.156;2023-03-31T09:12:45;5.25;;;1.10;;
789;SDS011;378;48.844;9.156;2023-03-31T09:15:21;3.85;;;1.00;;
789;SDS011;378;48.844;9.156;2023-03-31T09:17:51;2.80;;;1.00;;
789;SDS011;378;48.844;9.156;2023-03-31T09:20:22;5.18;;;1.17;;
789;SDS011;378;48.844;9.156;2023-03-31T09:22:54;5.35;;;1.10;;
789;SDS011;378;48.844;9.156;2023-03-31T09:25:27;3.63;;;1.02;;
789;SDS011;378;48.844;9.156;2023-03-31T09:27:59;2.78;;;1.10;;
789;SDS011;378;48.844;9.156;2023-03-31T09:30:29;2.80;;;0.85;;
789;SDS011;378;48.844;9.156;2023-03-31T09:33:02;5.10;;;1.27;;
789;SDS011;378;48.844;9.156;2023-03-31T09:35:36;3.88;;;1.02;;
789;SDS011;378;48.844;9.156;2023-03-31T09:38:03;3.33;;;1.10;;
789;SDS011;378;48.844;9.156;2023-03-31T09:40:30;4.38;;;1.02;;
789;SDS011;378;48.844;9.156;2023-03-31T09:42:59;5.45;;;1.38;;
789;SDS011;378;48.844;9.156;2023-03-31T09:45:29;9.50;;;1.60;;
789;SDS011;378;48.844;9.156;2023-03-31T09:47:58;3.45;;;0.95;;
789;SDS011;378;48.844;9.156;2023-03-31T09:50:30;5.10;;;1.65;;
789;SDS011;378;48.844;9.156;2023-03-31T09:53:01;5.13;;;1.35;;
789;SDS011;378;48.844;9.156;2023-03-31T09:55:32;6.00;;;1.10;;
789;SDS011;378;48.844;9.156;2023-03-31T09:58:12;6.43;;;0.93;;
789;SDS011;378;48.844;9.156;2023-03-31T10:00:40;3.90;;;1.20;;
789;SDS011;378;48.844;9.156;2023-03-31T10:03:09;6.38;;;1.42;;
789;SDS011;378;48.844;9.156;2023-03-31T10:05:48;7.78;;;1.23;;
789;SDS011;378;48.844;9.156;2023-03-31T10:08:28;8.07;;;1.45;;
789;SDS011;378;48.844;9.156;2023-03-31T10:10:57;6.22;;;1.33;;
789;SDS011;378;48.844;9.156;2023-03-31T10:13:37;9.20;;;1.30;;
789;SDS011;378;48.844;9.156;2023-03-31T10:16:12;5.63;;;1.13;;
789;SDS011;378;48.844;9.156;2023-03-31T10:18:41;3.15;;;0.90;;
789;SDS011;378;48.844;9.156;2023-03-31T10:21:14;4.85;;;1.55;;
789;SDS011;378;48.844;9.156;2023-03-31T10:23:46;8.13;;;1.33;;
789;SDS011;378;48.844;9.156;2023-03-31T10:26:16;5.15;;;1.10;;
789;SDS011;378;48.844;9.156;2023-03-31T10:28:46;4.70;;;1.10;;
789;SDS011;378;48.844;9.156;2023-03-31T10:31:16;3.22;;;0.90;;
789;SDS011;378;48.844;9.156;2023-03-31T10:33:45;5.93;;;1.02;;
789;SDS011;378;48.844;9.156;2023-03-31T10:36:15;8.98;;;1.00;;
789;SDS011;378;48.844;9.156;2023-03-31T10:38:47;4.53;;;1.30;;
789;SDS011;378;48.844;9.156;2023-03-31T10:41:16;4.50;;;1.02;;
789;SDS011;378;48.844;9.156;2023-03-31T10:43:48;3.65;;;1.10;;
789;SDS011;378;48.844;9.156;2023-03-31T10:46:16;5.18;;;1.10;;
789;SDS011;378;48.844;9.156;2023-03-31T10:48:44;5.78;;;1.30;;
789;SDS011;378;48.844;9.156;2023-03-31T10:51:13;5.50;;;1.25;;
789;SDS011;378;48.844;9.156;2023-03-31T10:53:42;6.70;;;1.20;;
789;SDS011;378;48.844;9.156;2023-03-31T10:56:13;5.45;;;1.00;;
789;SDS011;378;48.844;9.156;2023-03-31T11:01:56;4.65;;;1.10;;
789;SDS011;378;48.844;9.156;2023-03-31T11:04:40;5.00;;;1.40;;
789;SDS011;378;48.844;9.156;2023-03-31T11:07:27;5.85;;;1.17;;
789;SDS011;378;48.844;9.156;2023-03-31T11:10:07;5.45;;;1.17;;
789;SDS011;378;48.844;9.156;2023-03-31T11:12:48;9.95;;;1.38;;
789;SDS011;378;48.844;9.156;2023-03-31T11:15:22;4.75;;;1.02;;
789;SDS011;378;48.844;9.156;2023-03-31T11:18:00;6.20;;;1.17;;
789;SDS011;378;48.844;9.156;2023-03-31T11:20:40;9.93;;;1.38;;
789;SDS011;378;48.844;9.156;2023-03-31T11:23:16;5.35;;;1.00;;
789;SDS011;378;48.844;9.156;2023-03-31T11:25:49;8.13;;;1.13;;
789;SDS011;378;48.844;9.156;2023-03-31T11:28:32;4.03;;;0.70;;
789;SDS011;378;48.844;9.156;2023-03-31T11:31:40;4.53;;;0.50;;
789;SDS011;378;48.844;9.156;2023-03-31T11:34:19;2.80;;;0.60;;
789;SDS011;378;48.844;9.156;2023-03-31T11:37:18;6.05;;;0.52;;
789;SDS011;378;48.844;9.156;2023-03-31T11:40:00;0.95;;;0.50;;
789;SDS011;378;48.844;9.156;2023-03-31T11:42:41;4.55;;;0.43;;
789;SDS011;378;48.844;9.156;2023-03-31T11:45:14;2.70;;;0.52;;
789;SDS011;378;48.844;9.156;2023-03-31T11:47:44;1.27;;;0.45;;
789;SDS011;378;48.844;9.156;2023-03-31T11:50:17;1.05;;;0.43;;
789;SDS011;378;48.844;9.156;2023-03-31T11:52:47;2.17;;;0.50;;
789;SDS011;378;48.844;9.156;2023-03-31T11:55:20;2.03;;;0.50;;
789;SDS011;378;48.844;9.156;2023-03-31T11:57:51;2.05;;;0.57;;
789;SDS011;378;48.844;9.156;2023-03-31T12:00:26;1.52;;;0.50;;
789;SDS011;378;48.844;9.156;2023-03-31T12:02:58;1.65;;;0.50;;
789;SDS011;378;48.844;9.156;2023-03-31T12:05:31;1.17;;;0.50;;
789;SDS011;378;48.844;9.156;2023-03-31T12:08:04;2.95;;;0.43;;
789;SDS011;378;48.844;9.156;2023-03-31T12:10:33;0.50;;;0.50;;
789;SDS011;378;48.844;9.156;2023-03-31T12:13:04;1.52;;;0.40;;
789;SDS011;378;48.844;9.156;2023-03-31T12:15:50;1.00;;;0.40;;
789;SDS011;378;48.844;9.156;2023-03-31T12:18:25;0.82;;;0.40;;
789;SDS011;378;48.844;9.156;2023-03-31T12:20:58;0.60;;;0.30;;
789;SDS011;378;48.844;9.156;2023-03-31T12:23:28;1.92;;;0.40;;
789;SDS011;378;48.844;9.156;2023-03-31T12:25:59;2.05;;;0.60;;
789;SDS011;378;48.844;9.156;2023-03-31T12:28:32;1.67;;;0.65;;
789;SDS011;378;48.844;9.156;2023-03-31T12:31:01;3.05;;;0.50;;
789;SDS011;378;48.844;9.156;2023-03-31T12:33:31;3.75;;;0.77;;
789;SDS011;378;48.844;9.156;2023-03-31T12:36:09;4.57;;;0.60;;
789;SDS011;378;48.844;9.156;2023-03-31T12:38:50;5.30;;;0.82;;
789;SDS011;378;48.844;9.156;2023-03-31T12:41:28;1.90;;;0.70;;
789;SDS011;378;48.844;9.156;2023-03-31T12:44:04;4.05;;;0.70;;
789;SDS011;378;48.844;9.156;2023-03-31T12:46:46;1.55;;;0.60;;
789;SDS011;378;48.844;9.156;2023-03-31T12:49:45;2.58;;;0.82;;
789;SDS011;378;48.844;9.156;2023-03-31T12:52:22;2.67;;;0.60;;
789;SDS011;378;48.844;9.156;2023-03-31T12:55:01;2.03;;;0.68;;
789;SDS011;378;48.844;9.156;2023-03-31T12:57:46;2.70;;;0.45;;
789;SDS011;378;48.844;9.156;2023-03-31T13:00:21;2.60;;;0.73;;
789;SDS011;378;48.844;9.156;2023-03-31T13:02:50;3.03;;;0.60;;
789;SDS011;378;48.844;9.156;2023-03-31T13:05:57;2.45;;;0.85;;
789;SDS011;378;48.844;9.156;2023-03-31T13:11:16;2.45;;;0.75;;
789;SDS011;378;48.844;9.156;2023-03-31T13:13:44;5.43;;;1.10;;
789;SDS011;378;48.844;9.156;2023-03-31T13:16:18;5.82;;;1.25;;
789;SDS011;378;48.844;9.156;2023-03-31T13:18:49;4.10;;;0.85;;
789;SDS011;378;48.844;9.156;2023-03-31T13:21:17;8.00;;;1.45;;
789;SDS011;378;48.844;9.156;2023-03-31T13:23:45;3.17;;;0.65;;
789;SDS011;378;48.844;9.156;2023-03-31T13:29:20;2.85;;;0.63;;
789;SDS011;378;48.844;9.156;2023-03-31T13:32:05;4.63;;;0.80;;
789;SDS011;378;48.844;9.156;2023-03-31T13:34:48;4.93;;;0.70;;
789;SDS011;378;48.844;9.156;2023-03-31T13:40:29;2.08;;;0.57;;
789;SDS011;378;48.844;9.156;2023-03-31T13:43:21;2.35;;;0.50;;
789;SDS011;378;48.844;9.156;2023-03-31T13:49:26;1.85;;;0.40;;
789;SDS011;378;48.844;9.156;2023-03-31T13:52:11;0.65;;;0.40;;
789;SDS011;378;48.844;9.156;2023-03-31T13:57:44;1.27;;;0.30;;
789;SDS011;378;48.844;9.156;2023-03-31T14:00:38;0.40;;;0.20;;
789;SDS011;378;48.844;9.156;2023-03-31T14:03:12;0.52;;;0.30;;
789;SDS011;378;48.844;9.156;2023-03-31T14:05:49;0.47;;;0.40;;
789;SDS011;378;48.844;9.156;2023-03-31T14:08:25;0.82;;;0.40;;
789;SDS011;378;48.844;9.156;2023-03-31T14:13:41;1.67;;;0.50;;
789;SDS011;378;48.844;9.156;2023-03-31T14:16:09;1.55;;;0.60;;
789;SDS011;378;48.844;9.156;2023-03-31T14:18:37;3.88;;;0.57;;
789;SDS011;378;48.844;9.156;2023-03-31T14:21:16;0.98;;;0.40;;
789;SDS011;378;48.844;9.156;2023-03-31T14:23:53;5.57;;;0.73;;
789;SDS011;378;48.844;9.156;2023-03-31T14:26:33;2.45;;;0.40;;
789;SDS011;378;48.844;9.156;2023-03-31T14:29:11;1.52;;;0.40;;
789;SDS011;378;48.844;9.156;2023-03-31T14:31:48;4.13;;;0.50;;
789;SDS011;378;48.844;9.156;2023-03-31T14:34:26;1.05;;;0.52;;
789;SDS011;378;48.844;9.156;2023-03-31T14:37:08;0.88;;;0.35;;
789;SDS011;378;48.844;9.156;2023-03-31T14:39:39;1.52;;;0.60;;
789;SDS011;378;48.844;9.156;2023-03-31T14:42:09;2.53;;;0.45;;
789;SDS011;378;48.844;9.156;2023-03-31T14:44:38;1.00;;;0.57;;
789;SDS011;378;48.844;9.156;2023-03-31T14:47:11;0.93;;;0.50;;
789;SDS011;378;48.844;9.156;2023-03-31T14:49:39;1.55;;;0.40;;
789;SDS011;378;48.844;9.156;2023-03-31T14:52:12;2.67;;;0.40;;
789;SDS011;378;48.844;9.156;2023-03-31T14:54:40;1.20;;;0.40;;
789;SDS011;378;48.844;9.156;2023-03-31T14:57:11;0.35;;;0.35;;
789;SDS011;378;48.844;9.156;2023-03-31T14:59:41;2.10;;;0.40;;
789;SDS011;378;48.844;9.156;2023-03-31T15:02:12;2.75;;;0.50;;
789;SDS011;378;48.844;9.156;2023-03-31T15:04:42;1.15;;;0.40;;
789;SDS011;378;48.844;9.156;2023-03-31T15:07:12;1.35;;;0.40;;
789;SDS011;378;48.844;9.156;2023-03-31T15:09:43;0.93;;;0.40;;
789;SDS011;378;48.844;9.156;2023-03-31T15:12:14;0.60;;;0.30;;
789;SDS011;378;48.844;9.156;2023-03-31T15:14:45;2.40;;;0.60;;
789;SDS011;378;48.844;9.156;2023-03-31T15:17:21;1.95;;;0.75;;
789;SDS011;378;48.844;9.156;2023-03-31T15:19:53;1.95;;;0.68;;
789;SDS011;378;48.844;9.156;2023-03-31T15:22:23;3.00;;;0.50;;
789;SDS011;378;48.844;9.156;2023-03-31T15:24:51;1.88;;;0.60;;
789;SDS011;378;48.844;9.156;2023-03-31T15:27:20;1.67;;;0.52;;
789;SDS011;378;48.844;9.156;2023-03-31T15:29:55;0.95;;;0.52;;
789;SDS011;378;48.844;9.156;2023-03-31T15:32:27;1.98;;;0.70;;
789;SDS011;378;48.844;9.156;2023-03-31T15:34:56;2.00;;;0.73;;
789;SDS011;378;48.844;9.156;2023-03-31T15:37:25;3.53;;;0.68;;
789;SDS011;378;48.844;9.156;2023-03-31T15:39:57;2.78;;;0.77;;
789;SDS011;378;48.844;9.156;2023-03-31T15:42:25;2.15;;;0.60;;
789;SDS011;378;48.844;9.156;2023-03-31T15:44:53;1.65;;;0.60;;
789;SDS011;378;48.844;9.156;2023-03-31T15:47:21;3.75;;;1.10;;
789;SDS011;378;48.844;9.156;2023-03-31T15:49:55;3.83;;;0.80;;
789;SDS011;378;48.844;9.156;2023-03-31T15:52:25;4.60;;;0.77;;
789;SDS011;378;48.844;9.156;2023-03-31T15:54:55;0.93;;;0.50;;
789;SDS011;378;48.844;9.156;2023-03-31T15:57:29;1.20;;;0.60;;
789;SDS011;378;48.844;9.156;2023-03-31T15:59:57;3.55;;;0.63;;
789;SDS011;378;48.844;9.156;2023-03-31T16:02:25;8.15;;;1.10;;
789;SDS011;378;48.844;9.156;2023-03-31T16:04:57;5.65;;;0.82;;
789;SDS011;378;48.844;9.156;2023-03-31T16:07:26;1.40;;;0.75;;
789;SDS011;378;48.844;9.156;2023-03-31T16:09:56;3.17;;;0.88;;
789;SDS011;378;48.844;9.156;2023-03-31T16:12:28;5.05;;;0.93;;
789;SDS011;378;48.844;9.156;2023-03-31T16:15:01;5.20;;;0.90;;
789;SDS011;378;48.844;9.156;2023-03-31T16:17:33;7.30;;;0.93;;
789;SDS011;378;48.844;9.156;2023-03-31T16:20:08;4.13;;;0.73;;
789;SDS011;378;48.844;9.156;2023-03-31T16:22:46;3.00;;;0.80;;
789;SDS011;378;48.844;9.156;2023-03-31T16:25:16;5.18;;;0.80;;
789;SDS011;378;48.844;9.156;2023-03-31T16:27:45;3.05;;;0.60;;
789;SDS011;378;48.844;9.156;2023-03-31T16:30:16;5.25;;;0.80;;
789;SDS011;378;48.844;9.156;2023-03-31T16:35:32;8.38;;;0.70;;
789;SDS011;378;48.844;9.156;2023-03-31T16:38:01;4.72;;;0.88;;
789;SDS011;378;48.844;9.156;2023-03-31T16:40:28;7.85;;;0.80;;
789;SDS011;378;48.844;9.156;2023-03-31T16:43:06;2.17;;;0.52;;
789;SDS011;378;48.844;9.156;2023-03-31T16:45:35;2.45;;;0.60;;